createdAt,value
2017-06-11T00:00:19.041Z,0
2017-06-11T00:01:29.304Z,0
2017-06-11T00:02:39.251Z,0
2017-06-11T00:03:49.513Z,0
2017-06-11T00:04:59.776Z,0
2017-06-11T00:06:09.720Z,0
2017-06-11T00:07:19.676Z,0
2017-06-11T00:08:29.941Z,0
2017-06-11T00:09:40.203Z,0
2017-06-11T00:10:50.466Z,0
2017-06-11T00:12:00.725Z,0
2017-06-11T00:13:10.989Z,0
2017-06-11T00:14:21.254Z,0
2017-06-11T00:15:31.515Z,0
2017-06-11T00:16:41.779Z,0
2017-06-11T00:17:51.773Z,4
2017-06-11T00:19:01.726Z,4
2017-06-11T00:20:11.669Z,4
2017-06-11T00:21:21.622Z,4
2017-06-11T00:22:31.570Z,4
2017-06-11T00:23:45.579Z,4
2017-06-11T00:24:55.837Z,4
2017-06-11T00:26:06.098Z,4
2017-06-11T00:27:16.357Z,0
2017-06-11T00:28:26.619Z,0
2017-06-11T00:29:36.883Z,0
2017-06-11T00:30:47.146Z,0
2017-06-11T00:31:57.410Z,4
2017-06-11T00:33:07.364Z,4
2017-06-11T00:34:17.625Z,4
2017-06-11T00:35:27.889Z,4
2017-06-11T00:36:38.158Z,4
2017-06-11T00:37:48.418Z,4
2017-06-11T00:38:58.371Z,4
2017-06-11T00:40:08.638Z,4
2017-06-11T00:41:18.902Z,8
2017-06-11T00:42:29.159Z,8
2017-06-11T00:43:39.422Z,4
2017-06-11T00:44:49.680Z,4
2017-06-11T00:45:59.943Z,8
2017-06-11T00:47:09.897Z,8
2017-06-11T00:48:19.842Z,8
2017-06-11T00:49:30.111Z,8
2017-06-11T00:50:40.375Z,8
2017-06-11T00:51:50.636Z,12
2017-06-11T00:53:00.580Z,8
2017-06-11T00:54:10.521Z,12
2017-06-11T00:55:20.786Z,12
2017-06-11T00:56:31.050Z,12
2017-06-11T00:57:40.994Z,12
2017-06-11T00:58:51.262Z,16
2017-06-11T01:00:01.520Z,16
2017-06-11T01:01:11.786Z,20
2017-06-11T01:02:22.053Z,20
2017-06-11T01:03:32.010Z,20
2017-06-11T01:04:42.272Z,24
2017-06-11T01:05:52.553Z,24
2017-06-11T01:07:02.819Z,24
2017-06-11T01:08:12.766Z,24
2017-06-11T01:09:23.031Z,28
2017-06-11T01:10:33.298Z,28
2017-06-11T01:11:43.553Z,32
2017-06-11T01:12:53.501Z,36
2017-06-11T01:14:03.762Z,36
2017-06-11T01:15:13.719Z,40
2017-06-11T01:16:23.982Z,44
2017-06-11T01:17:33.932Z,44
2017-06-11T01:18:44.195Z,48
2017-06-11T01:19:54.141Z,48
2017-06-11T01:21:04.092Z,52
2017-06-11T01:22:14.363Z,56
2017-06-11T01:23:24.623Z,60
2017-06-11T01:24:34.570Z,64
2017-06-11T01:25:44.526Z,72
2017-06-11T01:26:54.789Z,76
2017-06-11T01:28:05.060Z,80
2017-06-11T01:29:15.322Z,84
2017-06-11T01:30:25.594Z,88
2017-06-11T01:31:35.860Z,96
2017-06-11T01:32:45.815Z,104
2017-06-11T01:33:55.760Z,112
2017-06-11T01:35:06.020Z,120
2017-06-11T01:36:16.279Z,128
2017-06-11T01:37:26.539Z,136
2017-06-11T01:38:36.491Z,140
2017-06-11T01:39:46.769Z,148
2017-06-11T01:40:57.037Z,156
2017-06-11T01:42:07.310Z,168
2017-06-11T01:43:16.948Z,176
2017-06-11T01:44:27.212Z,184
2017-06-11T01:45:37.473Z,196
2017-06-11T01:46:47.737Z,208
2017-06-11T01:47:57.721Z,224
2017-06-11T01:49:07.992Z,240
2017-06-11T01:50:17.936Z,252
2017-06-11T01:51:28.200Z,264
2017-06-11T01:52:38.458Z,276
2017-06-11T01:53:48.723Z,284
2017-06-11T01:54:59.000Z,292
2017-06-11T01:56:08.952Z,300
2017-06-11T01:57:19.210Z,308
2017-06-11T01:58:29.479Z,320
2017-06-11T01:59:39.739Z,328
2017-06-11T02:00:50.021Z,344
2017-06-11T02:02:00.282Z,356
2017-06-11T02:03:10.113Z,368
2017-06-11T02:04:20.374Z,384
2017-06-11T02:05:30.012Z,400
2017-06-11T02:06:39.960Z,416
2017-06-11T02:07:50.226Z,432
2017-06-11T02:09:04.490Z,460
2017-06-11T02:10:14.756Z,480
2017-06-11T02:11:25.037Z,508
2017-06-11T02:12:35.303Z,536
2017-06-11T02:13:45.561Z,564
2017-06-11T02:14:56.072Z,592
2017-06-11T02:16:06.337Z,620
2017-06-11T02:17:16.601Z,644
2017-06-11T02:18:26.876Z,668
2017-06-11T02:19:37.141Z,696
2017-06-11T02:20:47.121Z,720
2017-06-11T02:21:57.388Z,740
2017-06-11T02:23:07.649Z,756
2017-06-11T02:24:17.911Z,772
2017-06-11T02:25:28.170Z,796
2017-06-11T02:26:38.429Z,804
2017-06-11T02:27:48.375Z,824
2017-06-11T02:28:58.632Z,836
2017-06-11T02:30:08.920Z,848
2017-06-11T02:31:18.870Z,872
2017-06-11T02:32:29.135Z,900
2017-06-11T02:33:39.398Z,928
2017-06-11T02:34:49.659Z,960
2017-06-11T02:35:59.926Z,996
2017-06-11T02:37:10.187Z,1012
2017-06-11T02:38:20.459Z,1020
2017-06-11T02:39:30.725Z,1044
2017-06-11T02:40:40.673Z,1064
2017-06-11T02:41:50.940Z,1096
2017-06-11T02:43:01.202Z,1144
2017-06-11T02:44:11.465Z,1196
2017-06-11T02:45:21.406Z,1240
2017-06-11T02:46:31.347Z,1284
2017-06-11T02:47:41.612Z,1340
2017-06-11T02:48:51.564Z,1396
2017-06-11T02:50:01.845Z,1476
2017-06-11T02:51:12.106Z,1560
2017-06-11T02:52:22.364Z,1612
2017-06-11T02:53:32.621Z,1616
2017-06-11T02:54:42.890Z,1576
2017-06-11T02:55:53.152Z,1560
2017-06-11T02:57:03.414Z,1580
2017-06-11T02:58:13.356Z,1592
2017-06-11T02:59:23.303Z,1624
2017-06-11T03:00:33.591Z,1632
2017-06-11T03:01:43.544Z,1584
2017-06-11T03:02:53.806Z,1640
2017-06-11T03:04:04.057Z,1632
2017-06-11T03:05:14.324Z,1604
2017-06-11T03:06:24.269Z,1592
2017-06-11T03:07:34.526Z,1564
2017-06-11T03:08:44.792Z,1568
2017-06-11T03:09:54.745Z,1560
2017-06-11T03:11:05.008Z,1580
2017-06-11T03:12:14.954Z,1600
2017-06-11T03:13:25.211Z,1616
2017-06-11T03:14:35.471Z,1628
2017-06-11T03:15:45.104Z,1648
2017-06-11T03:16:55.369Z,1660
2017-06-11T03:18:05.632Z,1676
2017-06-11T03:19:15.265Z,1704
2017-06-11T03:20:25.525Z,1732
2017-06-11T03:21:35.785Z,1756
2017-06-11T03:22:45.734Z,1784
2017-06-11T03:23:55.991Z,1804
2017-06-11T03:25:06.258Z,1824
2017-06-11T03:26:16.516Z,1848
2017-06-11T03:27:26.772Z,1896
2017-06-11T03:28:37.043Z,1924
2017-06-11T03:29:47.304Z,1940
2017-06-11T03:30:57.563Z,1952
2017-06-11T03:32:07.822Z,1992
2017-06-11T03:33:17.767Z,2044
2017-06-11T03:34:28.036Z,2064
2017-06-11T03:35:38.305Z,2092
2017-06-11T03:36:48.571Z,2108
2017-06-11T03:37:58.829Z,2148
2017-06-11T03:39:09.097Z,2196
2017-06-11T03:40:19.354Z,2252
2017-06-11T03:41:29.609Z,2276
2017-06-11T03:42:39.871Z,2292
2017-06-11T03:43:50.140Z,2284
2017-06-11T03:45:00.085Z,2272
2017-06-11T03:46:09.723Z,2260
2017-06-11T03:47:19.672Z,2272
2017-06-11T03:48:29.309Z,2332
2017-06-11T03:49:39.566Z,2456
2017-06-11T03:50:49.515Z,2580
2017-06-11T03:51:59.781Z,2584
2017-06-11T03:53:09.730Z,2588
2017-06-11T03:54:19.996Z,2612
2017-06-11T03:55:30.262Z,2796
2017-06-11T03:56:40.211Z,3436
2017-06-11T03:57:50.475Z,3644
2017-06-11T03:59:00.456Z,3616
2017-06-11T04:00:10.722Z,3824
2017-06-11T04:01:20.984Z,3704
2017-06-11T04:02:31.245Z,3664
2017-06-11T04:03:41.224Z,3676
2017-06-11T04:04:51.496Z,4220
2017-06-11T04:06:01.783Z,4260
2017-06-11T04:07:12.051Z,4216
2017-06-11T04:08:21.998Z,4372
2017-06-11T04:09:32.266Z,4860
2017-06-11T04:10:42.563Z,5508
2017-06-11T04:11:52.510Z,5860
2017-06-11T04:13:02.772Z,6032
2017-06-11T04:14:12.715Z,6280
2017-06-11T04:15:22.976Z,6432
2017-06-11T04:16:33.243Z,6624
2017-06-11T04:17:43.538Z,6024
2017-06-11T04:18:53.801Z,6348
2017-06-11T04:20:04.066Z,6388
2017-06-11T04:21:14.016Z,6288
2017-06-11T04:22:24.282Z,6364
2017-06-11T04:23:34.547Z,6088
2017-06-11T04:24:43.876Z,6064
2017-06-11T04:25:54.134Z,5640
2017-06-11T04:27:04.392Z,4888
2017-06-11T04:28:14.351Z,4452
2017-06-11T04:29:24.300Z,4052
2017-06-11T04:30:34.559Z,4176
2017-06-11T04:31:44.198Z,4320
2017-06-11T04:32:54.463Z,3936
2017-06-11T04:34:04.722Z,3888
2017-06-11T04:35:14.357Z,4076
2017-06-11T04:36:24.610Z,4196
2017-06-11T04:37:34.877Z,4736
2017-06-11T04:38:44.830Z,4928
2017-06-11T04:39:55.093Z,4956
2017-06-11T04:41:05.356Z,4944
2017-06-11T04:42:15.304Z,4916
2017-06-11T04:43:25.563Z,4648
2017-06-11T04:44:35.855Z,4564
2017-06-11T04:45:45.803Z,4452
2017-06-11T04:46:56.075Z,4412
2017-06-11T04:48:06.344Z,4340
2017-06-11T04:49:16.612Z,4344
2017-06-11T04:50:26.874Z,4312
2017-06-11T04:51:37.139Z,4336
2017-06-11T04:52:47.403Z,4364
2017-06-11T04:53:57.355Z,4428
2017-06-11T04:55:07.623Z,4388
2017-06-11T04:56:17.887Z,4432
2017-06-11T04:57:27.854Z,4368
2017-06-11T04:58:38.114Z,4360
2017-06-11T04:59:48.376Z,4376
2017-06-11T05:00:58.641Z,4396
2017-06-11T05:02:08.906Z,4492
2017-06-11T05:03:19.169Z,4396
2017-06-11T05:04:29.428Z,4060
2017-06-11T05:05:39.055Z,3844
2017-06-11T05:06:49.316Z,3724
2017-06-11T05:07:59.581Z,3604
2017-06-11T05:09:09.536Z,3336
2017-06-11T05:10:19.799Z,3216
2017-06-11T05:11:30.064Z,3208
2017-06-11T05:12:40.325Z,3152
2017-06-11T05:13:50.275Z,3132
2017-06-11T05:15:00.556Z,3104
2017-06-11T05:16:10.507Z,3292
2017-06-11T05:17:20.458Z,3336
2017-06-11T05:18:30.720Z,3288
2017-06-11T05:19:40.987Z,3268
2017-06-11T05:20:51.250Z,3412
2017-06-11T05:22:01.527Z,3180
2017-06-11T05:23:11.795Z,3536
2017-06-11T05:24:22.061Z,3580
2017-06-11T05:25:32.324Z,3968
2017-06-11T05:26:41.649Z,4212
2017-06-11T05:27:51.908Z,4516
2017-06-11T05:29:02.177Z,4644
2017-06-11T05:30:12.439Z,4940
2017-06-11T05:31:22.699Z,5144
2017-06-11T05:32:32.961Z,5160
2017-06-11T05:33:42.593Z,5332
2017-06-11T05:34:52.854Z,5116
2017-06-11T05:36:03.114Z,4920
2017-06-11T05:37:13.060Z,4512
2017-06-11T05:38:23.333Z,4684
2017-06-11T05:39:33.591Z,4636
2017-06-11T05:40:43.540Z,4656
2017-06-11T05:41:53.822Z,4608
2017-06-11T05:43:04.079Z,4772
2017-06-11T05:44:14.338Z,5068
2017-06-11T05:45:24.604Z,5376
2017-06-11T05:46:34.561Z,5736
2017-06-11T05:47:44.517Z,5700
2017-06-11T05:48:54.775Z,5856
2017-06-11T05:50:05.039Z,6260
2017-06-11T05:51:15.319Z,6504
2017-06-11T05:52:25.583Z,6476
2017-06-11T05:53:35.532Z,6608
2017-06-11T05:54:45.793Z,6688
2017-06-11T05:55:56.055Z,6820
2017-06-11T05:57:06.315Z,6872
2017-06-11T05:58:16.576Z,7128
2017-06-11T05:59:26.842Z,7264
2017-06-11T06:00:37.105Z,7308
2017-06-11T06:01:46.742Z,7800
2017-06-11T06:02:56.068Z,8484
2017-06-11T06:04:06.331Z,8972
2017-06-11T06:05:16.282Z,9040
2017-06-11T06:06:26.551Z,8872
2017-06-11T06:07:36.818Z,8752
2017-06-11T06:08:47.085Z,8492
2017-06-11T06:09:57.035Z,8184
2017-06-11T06:11:07.293Z,8068
2017-06-11T06:12:17.555Z,8152
2017-06-11T06:13:27.830Z,8132
2017-06-11T06:14:38.091Z,8092
2017-06-11T06:15:48.359Z,8140
2017-06-11T06:16:58.312Z,8576
2017-06-11T06:18:08.579Z,8392
2017-06-11T06:19:18.881Z,7600
2017-06-11T06:20:28.831Z,7260
2017-06-11T06:21:39.102Z,7408
2017-06-11T06:22:49.050Z,7756
2017-06-11T06:23:59.335Z,8072
2017-06-11T06:25:09.596Z,8204
2017-06-11T06:26:19.857Z,8536
2017-06-11T06:27:29.811Z,8892
2017-06-11T06:28:40.080Z,9208
2017-06-11T06:29:50.357Z,9372
2017-06-11T06:31:00.317Z,9644
2017-06-11T06:32:10.581Z,10252
2017-06-11T06:33:20.854Z,10288
2017-06-11T06:34:31.120Z,9892
2017-06-11T06:35:41.381Z,9700
2017-06-11T06:36:51.327Z,9980
2017-06-11T06:38:01.590Z,10652
2017-06-11T06:39:11.854Z,11420
2017-06-11T06:40:22.119Z,11444
2017-06-11T06:41:32.070Z,11108
2017-06-11T06:42:42.018Z,10668
2017-06-11T06:43:52.277Z,10464
2017-06-11T06:45:02.539Z,10644
2017-06-11T06:46:12.802Z,10732
2017-06-11T06:47:22.757Z,10724
2017-06-11T06:48:32.704Z,10864
2017-06-11T06:49:42.968Z,11268
2017-06-11T06:50:53.232Z,11404
2017-06-11T06:52:03.501Z,11224
2017-06-11T06:53:13.458Z,11352
2017-06-11T06:54:23.731Z,11984
2017-06-11T06:55:34.007Z,12008
2017-06-11T06:56:44.298Z,11296
2017-06-11T06:57:54.589Z,10832
2017-06-11T06:59:04.544Z,10300
2017-06-11T07:00:14.500Z,9304
2017-06-11T07:01:24.771Z,8496
2017-06-11T07:02:35.042Z,7816
2017-06-11T07:03:44.992Z,7296
2017-06-11T07:04:55.263Z,7132
2017-06-11T07:06:05.530Z,7248
2017-06-11T07:07:15.482Z,7076
2017-06-11T07:08:25.442Z,6804
2017-06-11T07:09:35.711Z,6592
2017-06-11T07:10:45.671Z,6176
2017-06-11T07:11:55.938Z,6320
2017-06-11T07:13:06.203Z,6652
2017-06-11T07:14:16.467Z,7292
2017-06-11T07:15:26.733Z,7844
2017-06-11T07:16:36.997Z,8604
2017-06-11T07:17:46.948Z,9500
2017-06-11T07:18:56.908Z,9940
2017-06-11T07:20:07.182Z,10184
2017-06-11T07:21:17.133Z,10076
2017-06-11T07:22:27.082Z,10068
2017-06-11T07:23:37.370Z,9824
2017-06-11T07:24:47.635Z,9276
2017-06-11T07:25:57.897Z,9156
2017-06-11T07:27:07.534Z,9788
2017-06-11T07:28:17.801Z,10460
2017-06-11T07:29:27.751Z,10780
2017-06-11T07:30:37.699Z,11228
2017-06-11T07:31:47.654Z,11192
2017-06-11T07:32:57.924Z,10736
2017-06-11T07:34:07.875Z,10020
2017-06-11T07:35:17.201Z,8992
2017-06-11T07:36:27.465Z,8144
2017-06-11T07:37:37.754Z,7804
2017-06-11T07:38:47.706Z,7692
2017-06-11T07:39:57.969Z,7412
2017-06-11T07:41:07.918Z,6088
2017-06-11T07:42:18.193Z,4908
2017-06-11T07:43:28.456Z,4212
2017-06-11T07:44:38.726Z,3780
2017-06-11T07:45:48.678Z,3688
2017-06-11T07:46:58.939Z,4260
2017-06-11T07:48:09.210Z,5196
2017-06-11T07:49:19.482Z,5996
2017-06-11T07:50:29.749Z,6156
2017-06-11T07:51:40.018Z,5004
2017-06-11T07:52:50.284Z,4360
2017-06-11T07:54:00.549Z,4844
2017-06-11T07:55:10.818Z,5588
2017-06-11T07:56:21.089Z,6416
2017-06-11T07:57:31.358Z,6976
2017-06-11T07:58:41.313Z,6848
2017-06-11T07:59:51.578Z,5300
2017-06-11T08:01:01.841Z,4472
2017-06-11T08:02:12.133Z,4576
2017-06-11T08:03:22.083Z,5288
2017-06-11T08:04:32.344Z,5976
2017-06-11T08:05:42.616Z,6284
2017-06-11T08:06:52.886Z,5688
2017-06-11T08:08:03.155Z,4972
2017-06-11T08:09:13.128Z,4496
2017-06-11T08:10:23.392Z,4472
2017-06-11T08:11:33.341Z,4752
2017-06-11T08:12:43.297Z,4816
2017-06-11T08:13:53.561Z,4704
2017-06-11T08:15:03.826Z,5096
2017-06-11T08:16:13.778Z,6056
2017-06-11T08:17:24.069Z,7192
2017-06-11T08:18:34.333Z,9108
2017-06-11T08:19:44.604Z,9976
2017-06-11T08:20:54.867Z,9836
2017-06-11T08:22:05.147Z,10812
2017-06-11T08:23:15.457Z,10072
2017-06-11T08:24:25.726Z,9480
2017-06-11T08:25:35.683Z,8872
2017-06-11T08:26:45.636Z,7596
2017-06-11T08:27:55.912Z,6452
2017-06-11T08:29:06.175Z,6020
2017-06-11T08:30:16.131Z,6408
2017-06-11T08:31:25.450Z,6516
2017-06-11T08:32:35.716Z,7544
2017-06-11T08:33:45.985Z,8996
2017-06-11T08:34:56.248Z,7940
2017-06-11T08:36:06.513Z,6384
2017-06-11T08:37:16.776Z,5772
2017-06-11T08:38:27.043Z,5456
2017-06-11T08:39:37.310Z,5284
2017-06-11T08:40:47.259Z,5084
2017-06-11T08:41:57.223Z,5272
2017-06-11T08:43:07.504Z,5420
2017-06-11T08:44:17.769Z,5340
2017-06-11T08:45:28.035Z,5096
2017-06-11T08:46:38.308Z,5156
2017-06-11T08:47:47.948Z,5348
2017-06-11T08:48:58.206Z,4900
2017-06-11T08:50:08.468Z,4608
2017-06-11T08:51:18.732Z,4852
2017-06-11T08:52:28.998Z,5208
2017-06-11T08:53:38.948Z,5328
2017-06-11T08:54:48.916Z,4940
2017-06-11T08:55:59.182Z,4968
2017-06-11T08:57:09.446Z,5716
2017-06-11T08:58:19.711Z,6124
2017-06-11T08:59:29.971Z,5712
2017-06-11T09:00:40.237Z,5264
2017-06-11T09:01:50.187Z,4704
2017-06-11T09:03:00.453Z,4660
2017-06-11T09:04:10.724Z,4964
2017-06-11T09:05:20.676Z,4448
2017-06-11T09:06:30.946Z,4556
2017-06-11T09:07:40.892Z,4772
2017-06-11T09:08:50.858Z,4748
2017-06-11T09:10:00.488Z,4384
2017-06-11T09:11:10.754Z,4244
2017-06-11T09:12:21.020Z,3572
2017-06-11T09:13:30.966Z,3172
2017-06-11T09:14:41.225Z,3372
2017-06-11T09:15:51.177Z,3768
2017-06-11T09:17:01.441Z,4196
2017-06-11T09:18:11.394Z,4628
2017-06-11T09:19:21.660Z,4964
2017-06-11T09:20:31.930Z,5860
2017-06-11T09:21:41.261Z,7000
2017-06-11T09:22:51.530Z,8292
2017-06-11T09:24:01.484Z,9308
2017-06-11T09:25:11.750Z,9320
2017-06-11T09:26:21.386Z,9820
2017-06-11T09:27:31.646Z,11288
2017-06-11T09:28:41.283Z,11556
2017-06-11T09:29:51.577Z,9916
2017-06-11T09:31:01.836Z,8624
2017-06-11T09:32:12.098Z,8060
2017-06-11T09:33:22.369Z,9236
2017-06-11T09:34:32.317Z,10468
2017-06-11T09:35:42.590Z,10872
2017-06-11T09:36:52.854Z,10860
2017-06-11T09:38:02.801Z,10492
2017-06-11T09:39:13.067Z,9276
2017-06-11T09:40:23.326Z,10408
2017-06-11T09:41:33.590Z,15960
2017-06-11T09:42:43.226Z,13636
2017-06-11T09:43:53.487Z,13292
2017-06-11T09:45:03.756Z,15456
2017-06-11T09:46:14.025Z,14532
2017-06-11T09:47:23.973Z,13572
2017-06-11T09:48:33.917Z,9016
2017-06-11T09:49:43.862Z,6596
2017-06-11T09:50:54.127Z,4872
2017-06-11T09:52:04.400Z,3924
2017-06-11T09:53:14.671Z,3856
2017-06-11T09:54:24.931Z,4192
2017-06-11T09:55:34.899Z,4352
2017-06-11T09:56:44.851Z,4972
2017-06-11T09:57:55.110Z,5268
2017-06-11T09:59:05.372Z,5364
2017-06-11T10:00:15.633Z,5268
2017-06-11T10:01:25.921Z,4860
2017-06-11T10:02:36.232Z,4832
2017-06-11T10:03:45.871Z,4284
2017-06-11T10:04:55.834Z,4160
2017-06-11T10:06:06.103Z,3920
2017-06-11T10:07:16.369Z,3844
2017-06-11T10:08:26.665Z,4012
2017-06-11T10:09:36.925Z,4164
2017-06-11T10:10:47.187Z,4168
2017-06-11T10:11:57.450Z,4464
2017-06-11T10:13:07.713Z,4564
2017-06-11T10:14:17.973Z,4300
2017-06-11T10:15:28.239Z,4424
2017-06-11T10:16:38.505Z,4836
2017-06-11T10:17:48.456Z,5260
2017-06-11T10:18:58.406Z,5184
2017-06-11T10:20:08.360Z,4996
2017-06-11T10:21:18.621Z,4636
2017-06-11T10:22:28.887Z,4560
2017-06-11T10:23:39.177Z,4312
2017-06-11T10:24:49.435Z,4156
2017-06-11T10:25:59.702Z,4028
2017-06-11T10:27:09.653Z,3916
2017-06-11T10:28:19.913Z,4044
2017-06-11T10:29:30.182Z,4384
2017-06-11T10:30:40.437Z,4736
2017-06-11T10:31:50.389Z,4748
2017-06-11T10:33:00.022Z,4632
2017-06-11T10:34:09.974Z,4796
2017-06-11T10:35:20.241Z,5408
2017-06-11T10:36:30.189Z,6448
2017-06-11T10:37:40.135Z,6312
2017-06-11T10:38:50.398Z,5496
2017-06-11T10:40:00.659Z,4760
2017-06-11T10:41:10.291Z,4844
2017-06-11T10:42:20.554Z,4568
2017-06-11T10:43:30.824Z,4112
2017-06-11T10:44:41.086Z,4296
2017-06-11T10:45:50.721Z,4484
2017-06-11T10:47:00.670Z,4360
2017-06-11T10:48:10.936Z,3972
2017-06-11T10:49:20.890Z,3872
2017-06-11T10:50:30.844Z,3892
2017-06-11T10:51:41.106Z,4056
2017-06-11T10:52:51.381Z,4444
2017-06-11T10:54:01.645Z,5016
2017-06-11T10:55:11.599Z,5828
2017-06-11T10:56:21.870Z,7008
2017-06-11T10:57:32.140Z,7852
2017-06-11T10:58:42.408Z,9444
2017-06-11T10:59:52.358Z,9924
2017-06-11T11:01:02.623Z,8852
2017-06-11T11:02:12.885Z,7152
2017-06-11T11:03:23.152Z,6700
2017-06-11T11:04:32.783Z,7384
2017-06-11T11:05:42.730Z,6504
2017-06-11T11:06:53.001Z,5996
2017-06-11T11:08:03.271Z,5808
2017-06-11T11:09:13.530Z,5384
2017-06-11T11:10:23.793Z,5116
2017-06-11T11:11:34.060Z,5092
2017-06-11T11:12:44.325Z,5360
2017-06-11T11:13:54.277Z,5656
2017-06-11T11:15:04.542Z,6740
2017-06-11T11:16:14.800Z,7864
2017-06-11T11:17:25.058Z,8036
2017-06-11T11:18:35.323Z,7560
2017-06-11T11:19:45.581Z,6544
2017-06-11T11:20:55.529Z,5884
2017-06-11T11:22:05.483Z,6580
2017-06-11T11:23:15.742Z,6544
2017-06-11T11:24:26.024Z,5824
2017-06-11T11:25:35.972Z,5504
2017-06-11T11:26:45.924Z,5120
2017-06-11T11:27:56.182Z,4928
2017-06-11T11:29:05.822Z,4992
2017-06-11T11:30:16.081Z,6172
2017-06-11T11:31:26.020Z,5828
2017-06-11T11:32:35.960Z,4500
2017-06-11T11:33:46.215Z,4308
2017-06-11T11:34:55.882Z,4536
2017-06-11T11:36:05.830Z,4456
2017-06-11T11:37:16.091Z,4260
2017-06-11T11:38:26.345Z,4332
2017-06-11T11:39:35.998Z,4196
2017-06-11T11:40:45.937Z,3656
2017-06-11T11:41:55.887Z,3424
2017-06-11T11:43:06.143Z,3652
2017-06-11T11:44:16.400Z,3516
2017-06-11T11:45:26.035Z,3236
2017-06-11T11:46:36.298Z,3264
2017-06-11T11:47:46.560Z,3324
2017-06-11T11:48:56.511Z,3072
2017-06-11T11:50:06.457Z,3000
2017-06-11T11:51:16.717Z,3264
2017-06-11T11:52:26.980Z,3192
2017-06-11T11:53:37.243Z,2900
2017-06-11T11:54:47.505Z,2692
2017-06-11T11:55:57.454Z,2704
2017-06-11T11:57:07.396Z,2792
2017-06-11T11:58:17.339Z,2908
2017-06-11T11:59:26.964Z,2760
2017-06-11T12:00:37.225Z,2520
2017-06-11T12:01:47.486Z,2148
2017-06-11T12:02:57.434Z,2068
2017-06-11T12:04:07.690Z,2212
2017-06-11T12:05:17.633Z,2720
2017-06-11T12:06:27.575Z,2820
2017-06-11T12:07:37.834Z,2656
2017-06-11T12:08:48.094Z,2776
2017-06-11T12:09:57.731Z,2976
2017-06-11T12:11:07.992Z,3096
2017-06-11T12:12:17.940Z,3532
2017-06-11T12:13:28.228Z,3956
2017-06-11T12:14:38.488Z,4432
2017-06-11T12:15:48.120Z,4980
2017-06-11T12:16:58.374Z,5512
2017-06-11T12:18:08.628Z,6212
2017-06-11T12:19:18.891Z,7548
2017-06-11T12:20:29.149Z,8580
2017-06-11T12:21:39.404Z,8460
2017-06-11T12:22:49.035Z,8220
2017-06-11T12:23:58.982Z,8620
2017-06-11T12:25:09.238Z,8228
2017-06-11T12:26:19.509Z,8444
2017-06-11T12:27:29.771Z,8188
2017-06-11T12:28:40.030Z,7212
2017-06-11T12:29:50.288Z,5724
2017-06-11T12:30:59.922Z,4992
2017-06-11T12:32:10.185Z,4728
2017-06-11T12:33:20.450Z,4688
2017-06-11T12:34:30.710Z,5856
2017-06-11T12:35:40.967Z,6420
2017-06-11T12:36:51.229Z,6052
2017-06-11T12:38:01.187Z,6732
2017-06-11T12:39:11.138Z,6612
2017-06-11T12:40:21.082Z,6424
2017-06-11T12:41:31.343Z,6020
2017-06-11T12:42:41.608Z,5856
2017-06-11T12:43:51.870Z,5264
2017-06-11T12:45:01.809Z,5200
2017-06-11T12:46:12.068Z,6676
2017-06-11T12:47:22.014Z,8464
2017-06-11T12:48:32.273Z,9380
2017-06-11T12:49:42.531Z,9372
2017-06-11T12:50:52.471Z,6508
2017-06-11T12:52:02.733Z,6228
2017-06-11T12:53:12.997Z,5600
2017-06-11T12:54:23.258Z,4836
2017-06-11T12:55:33.519Z,4656
2017-06-11T12:56:43.464Z,5148
2017-06-11T12:57:53.932Z,4940
2017-06-11T12:59:04.192Z,5360
2017-06-11T13:00:14.453Z,5044
2017-06-11T13:01:24.725Z,4112
2017-06-11T13:02:34.989Z,4980
2017-06-11T13:03:45.251Z,4244
2017-06-11T13:04:55.201Z,3404
2017-06-11T13:06:05.148Z,2820
2017-06-11T13:07:14.787Z,2860
2017-06-11T13:08:24.737Z,3240
2017-06-11T13:09:34.372Z,3268
2017-06-11T13:10:44.320Z,2824
2017-06-11T13:11:53.954Z,2788
2017-06-11T13:13:04.215Z,2364
2017-06-11T13:14:14.482Z,2116
2017-06-11T13:15:24.424Z,2028
2017-06-11T13:16:34.680Z,2092
2017-06-11T13:17:44.630Z,2084
2017-06-11T13:18:54.892Z,1916
2017-06-11T13:20:05.160Z,2136
2017-06-11T13:21:15.426Z,2412
2017-06-11T13:22:25.692Z,2444
2017-06-11T13:23:35.640Z,2152
2017-06-11T13:24:45.903Z,2108
2017-06-11T13:25:56.161Z,2164
2017-06-11T13:27:06.423Z,1968
2017-06-11T13:28:16.687Z,2128
2017-06-11T13:29:26.632Z,1768
2017-06-11T13:30:36.893Z,1760
2017-06-11T13:31:47.161Z,2020
2017-06-11T13:32:56.795Z,2280
2017-06-11T13:34:07.052Z,2512
2017-06-11T13:35:17.312Z,2604
2017-06-11T13:36:27.262Z,2756
2017-06-11T13:37:37.208Z,2852
2017-06-11T13:38:47.471Z,2728
2017-06-11T13:39:57.104Z,3244
2017-06-11T13:41:07.364Z,3352
2017-06-11T13:42:17.624Z,3300
2017-06-11T13:43:27.882Z,3532
2017-06-11T13:44:38.221Z,3076
2017-06-11T13:45:48.486Z,2484
2017-06-11T13:46:58.756Z,2316
2017-06-11T13:48:09.023Z,2408
2017-06-11T13:49:18.968Z,2688
2017-06-11T13:50:29.223Z,2816
2017-06-11T13:51:39.482Z,2420
2017-06-11T13:52:49.173Z,2176
2017-06-11T13:53:59.119Z,2144
2017-06-11T13:55:09.073Z,2172
2017-06-11T13:56:19.334Z,2180
2017-06-11T13:57:29.596Z,2308
2017-06-11T13:58:39.860Z,2688
2017-06-11T13:59:50.115Z,3132
2017-06-11T14:01:00.371Z,3664
2017-06-11T14:02:10.319Z,5332
2017-06-11T14:03:20.585Z,5372
2017-06-11T14:04:30.214Z,4952
2017-06-11T14:05:40.161Z,4144
2017-06-11T14:06:50.120Z,3412
2017-06-11T14:08:00.067Z,3324
2017-06-11T14:09:10.005Z,3448
2017-06-11T14:10:20.265Z,3448
2017-06-11T14:11:30.212Z,3096
2017-06-11T14:12:40.477Z,2968
2017-06-11T14:13:50.734Z,3284
2017-06-11T14:15:00.988Z,3924
2017-06-11T14:16:11.249Z,4548
2017-06-11T14:17:21.507Z,4836
2017-06-11T14:18:31.765Z,4104
2017-06-11T14:19:42.027Z,4252
2017-06-11T14:20:52.287Z,3424
2017-06-11T14:22:02.235Z,3464
2017-06-11T14:23:12.507Z,3900
2017-06-11T14:24:22.137Z,3224
2017-06-11T14:25:32.399Z,2372
2017-06-11T14:26:42.658Z,1996
2017-06-11T14:27:52.604Z,1720
2017-06-11T14:29:02.549Z,1848
2017-06-11T14:30:12.822Z,1752
2017-06-11T14:31:23.081Z,1728
2017-06-11T14:32:33.027Z,1816
2017-06-11T14:33:43.279Z,1748
2017-06-11T14:34:53.222Z,1832
2017-06-11T14:36:03.166Z,1960
2017-06-11T14:37:13.429Z,2272
2017-06-11T14:38:23.712Z,2116
2017-06-11T14:39:33.971Z,2024
2017-06-11T14:40:44.225Z,1944
2017-06-11T14:41:54.485Z,2096
2017-06-11T14:43:04.431Z,2076
2017-06-11T14:44:14.706Z,2192
2017-06-11T14:45:24.965Z,1904
2017-06-11T14:46:35.228Z,1764
2017-06-11T14:47:45.490Z,1860
2017-06-11T14:48:55.749Z,1820
2017-06-11T14:50:06.004Z,1704
2017-06-11T14:51:15.954Z,1860
2017-06-11T14:52:26.211Z,2152
2017-06-11T14:53:36.470Z,2848
2017-06-11T14:54:46.730Z,3048
2017-06-11T14:55:56.676Z,2856
2017-06-11T14:57:06.623Z,2788
2017-06-11T14:58:16.886Z,2680
2017-06-11T14:59:26.831Z,2400
2017-06-11T15:00:36.787Z,2224
2017-06-11T15:01:47.040Z,2200
2017-06-11T15:02:57.307Z,2780
2017-06-11T15:04:07.253Z,3176
2017-06-11T15:05:17.204Z,3352
2017-06-11T15:06:27.467Z,3688
2017-06-11T15:07:37.726Z,3992
2017-06-11T15:08:47.985Z,4328
2017-06-11T15:09:58.240Z,4416
2017-06-11T15:11:08.493Z,3672
2017-06-11T15:12:18.756Z,3244
2017-06-11T15:13:28.705Z,4328
2017-06-11T15:14:38.971Z,5164
2017-06-11T15:15:49.231Z,4692
2017-06-11T15:16:59.491Z,4508
2017-06-11T15:18:09.748Z,3868
2017-06-11T15:19:20.014Z,3252
2017-06-11T15:20:30.273Z,2820
2017-06-11T15:21:40.546Z,2924
2017-06-11T15:22:50.488Z,3684
2017-06-11T15:24:00.118Z,3664
2017-06-11T15:25:10.383Z,4652
2017-06-11T15:26:20.641Z,5304
2017-06-11T15:27:30.906Z,5204
2017-06-11T15:28:41.175Z,5208
2017-06-11T15:29:51.431Z,5504
2017-06-11T15:31:01.380Z,5120
2017-06-11T15:32:11.329Z,5708
2017-06-11T15:33:21.587Z,6220
2017-06-11T15:34:31.848Z,5776
2017-06-11T15:35:41.795Z,5284
2017-06-11T15:36:52.051Z,5868
2017-06-11T15:38:02.318Z,5880
2017-06-11T15:39:12.270Z,4604
2017-06-11T15:40:22.530Z,4516
2017-06-11T15:41:32.789Z,4664